Time;durP1;ratioP1;P1;durP2;ratioP2;P2;SDS_P1;SDS_P2;PMS_P1;PMS_P2;Temp;Humidity;BMP_temperature;BMP_pressure;BME280_temperature;BME280_humidity;BME280_pressure;Samples;Min_cycle;Max_cycle;Signal;HPM_P1;HPM_P2
2021/09/20 00:01:39;;;;;;;7.45;1.20;;;;;;;;;;5047293;28;20083;-79
2021/09/20 00:04:05;;;;;;;13.30;1.08;;;;;;;;;;5046500;28;20072;-79
2021/09/20 00:06:30;;;;;;;9.10;1.17;;;;;;;;;;5065042;28;20055;-79
2021/09/20 00:08:56;;;;;;;7.22;0.90;;;;;;;;;;5048529;28;20065;-80
2021/09/20 00:11:21;;;;;;;15.85;1.67;;;;;;;;;;5043036;28;20047;-79
2021/09/20 00:13:47;;;;;;;6.80;1.23;;;;;;;;;;5047818;28;20032;-79
2021/09/20 00:16:12;;;;;;;10.02;1.20;;;;;;;;;;5045549;28;20041;-79
2021/09/20 00:18:38;;;;;;;7.57;1.20;;;;;;;;;;5061583;28;20514;-79
2021/09/20 00:21:04;;;;;;;7.47;1.10;;;;;;;;;;5047903;28;20031;-79
2021/09/20 00:23:29;;;;;;;13.50;1.42;;;;;;;;;;5048638;28;20029;-79
2021/09/20 00:25:58;;;;;;;12.85;1.40;;;;;;;;;;5063708;28;20029;-79
2021/09/20 00:28:23;;;;;;;8.88;1.23;;;;;;;;;;5048290;28;20045;-79
2021/09/20 00:30:49;;;;;;;11.55;1.20;;;;;;;;;;5063954;28;20036;-80
2021/09/20 00:33:14;;;;;;;4.40;0.93;;;;;;;;;;5043883;28;20086;-79
2021/09/20 00:35:40;;;;;;;7.07;0.88;;;;;;;;;;5044507;28;20037;-79
2021/09/20 00:38:05;;;;;;;13.50;2.15;;;;;;;;;;5047663;28;20044;-79
2021/09/20 00:40:31;;;;;;;12.20;1.90;;;;;;;;;;5063111;28;20033;-79
2021/09/20 00:42:56;;;;;;;7.68;0.95;;;;;;;;;;5048006;28;20410;-79
2021/09/20 00:45:22;;;;;;;5.38;1.40;;;;;;;;;;5062874;28;20079;-79
2021/09/20 00:47:48;;;;;;;15.50;1.40;;;;;;;;;;5047931;28;20036;-79
2021/09/20 00:50:13;;;;;;;9.82;1.38;;;;;;;;;;5061193;28;20029;-79
2021/09/20 00:52:39;;;;;;;13.80;2.08;;;;;;;;;;5046789;28;20037;-79
2021/09/20 00:55:06;;;;;;;11.85;1.50;;;;;;;;;;5059346;28;20033;-79
2021/09/20 00:57:32;;;;;;;9.48;1.27;;;;;;;;;;5044468;28;20025;-79
2021/09/20 00:59:58;;;;;;;11.23;1.92;;;;;;;;;;5050349;28;20033;-79
2021/09/20 01:02:24;;;;;;;9.85;1.10;;;;;;;;;;5049068;28;20133;-79
2021/09/20 01:04:49;;;;;;;13.40;1.70;;;;;;;;;;5064017;28;20028;-79
2021/09/20 01:07:14;;;;;;;15.45;1.38;;;;;;;;;;5064301;28;20032;-79
2021/09/20 01:09:44;;;;;;;11.05;1.63;;;;;;;;;;5079585;28;20040;-79
2021/09/20 01:12:10;;;;;;;11.93;1.83;;;;;;;;;;5063265;28;20064;-79
2021/09/20 01:14:36;;;;;;;8.60;1.17;;;;;;;;;;5046378;28;20036;-79
2021/09/20 01:17:04;;;;;;;7.80;1.08;;;;;;;;;;5063292;28;20060;-79
2021/09/20 01:19:30;;;;;;;13.45;1.70;;;;;;;;;;5066035;28;20074;-79
2021/09/20 01:22:00;;;;;;;13.45;1.77;;;;;;;;;;5064998;28;20044;-79
2021/09/20 01:24:26;;;;;;;14.65;1.70;;;;;;;;;;5061459;28;20408;-79
2021/09/20 01:26:58;;;;;;;9.07;1.27;;;;;;;;;;5064796;28;20028;-79
2021/09/20 01:29:23;;;;;;;12.23;1.20;;;;;;;;;;5063635;28;20046;-79
2021/09/20 01:31:49;;;;;;;14.32;1.20;;;;;;;;;;5084044;28;20036;-79
2021/09/20 01:34:14;;;;;;;10.25;1.10;;;;;;;;;;5063026;28;20794;-79
2021/09/20 01:36:40;;;;;;;7.60;1.38;;;;;;;;;;5062511;28;20151;-79
2021/09/20 01:39:15;;;;;;;16.38;1.33;;;;;;;;;;5064216;28;20033;-79
2021/09/20 01:41:41;;;;;;;13.60;1.95;;;;;;;;;;5075439;28;20039;-79
2021/09/20 01:44:06;;;;;;;11.70;1.33;;;;;;;;;;5065176;28;20037;-78
2021/09/20 01:46:31;;;;;;;11.18;1.42;;;;;;;;;;5063624;28;20052;-78
2021/09/20 01:49:00;;;;;;;16.92;1.13;;;;;;;;;;5056764;28;20021;-79
2021/09/20 01:51:25;;;;;;;11.35;1.40;;;;;;;;;;5063771;28;20044;-79
2021/09/20 01:53:51;;;;;;;18.30;1.52;;;;;;;;;;5061958;28;20035;-79
2021/09/20 01:56:16;;;;;;;11.70;1.10;;;;;;;;;;5065010;28;20397;-79
2021/09/20 01:58:42;;;;;;;11.05;1.65;;;;;;;;;;5066395;28;20068;-78
2021/09/20 02:01:07;;;;;;;14.07;1.83;;;;;;;;;;5064129;28;20029;-78
2021/09/20 02:03:33;;;;;;;12.68;1.65;;;;;;;;;;5064186;28;20119;-79
2021/09/20 02:05:58;;;;;;;18.42;1.42;;;;;;;;;;5080378;28;20036;-78
2021/09/20 02:08:24;;;;;;;15.15;1.67;;;;;;;;;;5064230;28;20103;-78
2021/09/20 02:10:50;;;;;;;7.85;1.30;;;;;;;;;;5066385;28;20035;-79
2021/09/20 02:13:15;;;;;;;10.02;1.50;;;;;;;;;;5061901;28;20033;-79
2021/09/20 02:15:41;;;;;;;11.35;2.05;;;;;;;;;;5063353;28;20028;-79
2021/09/20 02:18:06;;;;;;;9.68;1.10;;;;;;;;;;5062604;28;20025;-79
2021/09/20 02:20:32;;;;;;;21.17;1.80;;;;;;;;;;5066264;28;20127;-78
2021/09/20 02:22:57;;;;;;;15.40;2.45;;;;;;;;;;5065416;28;20078;-79
2021/09/20 02:25:23;;;;;;;23.08;2.42;;;;;;;;;;5049084;28;20032;-78
2021/09/20 02:27:49;;;;;;;7.97;1.45;;;;;;;;;;5062476;28;20114;-79
2021/09/20 02:30:14;;;;;;;13.05;1.70;;;;;;;;;;5064312;28;20500;-79
2021/09/20 02:32:40;;;;;;;10.10;2.15;;;;;;;;;;5045666;28;20067;-79
2021/09/20 02:35:06;;;;;;;18.30;1.27;;;;;;;;;;5065652;28;20093;-78
2021/09/20 02:37:32;;;;;;;12.18;1.35;;;;;;;;;;5059511;28;20056;-79
2021/09/20 02:39:58;;;;;;;13.18;1.30;;;;;;;;;;5062442;28;20115;-79
2021/09/20 02:42:24;;;;;;;9.95;2.15;;;;;;;;;;5048681;28;20092;-79
2021/09/20 02:44:50;;;;;;;10.05;1.55;;;;;;;;;;5063951;28;20029;-78
2021/09/20 02:47:16;;;;;;;4.65;0.88;;;;;;;;;;5064827;28;20074;-78
2021/09/20 02:49:41;;;;;;;15.13;1.50;;;;;;;;;;5079211;28;20052;-79
2021/09/20 02:52:07;;;;;;;10.55;1.27;;;;;;;;;;5048891;28;20103;-78
2021/09/20 02:54:32;;;;;;;14.55;1.25;;;;;;;;;;5075466;28;20025;-79
2021/09/20 02:56:58;;;;;;;11.68;1.27;;;;;;;;;;5064983;28;20477;-79
2021/09/20 02:59:23;;;;;;;11.98;1.00;;;;;;;;;;5064731;28;20033;-79
2021/09/20 03:01:49;;;;;;;11.18;1.27;;;;;;;;;;5081208;28;20032;-79
2021/09/20 03:04:14;;;;;;;10.43;1.33;;;;;;;;;;5047728;28;20033;-78
2021/09/20 03:06:40;;;;;;;8.52;1.10;;;;;;;;;;5074394;28;20033;-79
2021/09/20 03:09:05;;;;;;;18.55;2.08;;;;;;;;;;5060145;28;20086;-78
2021/09/20 03:11:30;;;;;;;16.65;1.73;;;;;;;;;;5065064;28;20036;-78
2021/09/20 03:13:57;;;;;;;7.45;1.15;;;;;;;;;;5062330;28;20055;-78
2021/09/20 03:16:22;;;;;;;12.50;1.58;;;;;;;;;;5062431;28;20055;-79
2021/09/20 03:18:48;;;;;;;14.23;1.70;;;;;;;;;;5064424;28;20032;-79
2021/09/20 03:21:16;;;;;;;14.05;1.30;;;;;;;;;;5064789;28;20070;-79
2021/09/20 03:23:41;;;;;;;14.07;1.52;;;;;;;;;;5064277;28;20032;-79
2021/09/20 03:26:07;;;;;;;7.88;1.23;;;;;;;;;;5065807;28;20043;-79
2021/09/20 03:28:32;;;;;;;12.00;1.30;;;;;;;;;;5062865;28;20052;-79
2021/09/20 03:30:58;;;;;;;9.80;1.50;;;;;;;;;;5067768;28;20039;-78
2021/09/20 03:33:23;;;;;;;15.35;1.50;;;;;;;;;;5064090;28;20639;-79
2021/09/20 03:35:49;;;;;;;12.63;1.27;;;;;;;;;;5072952;28;20088;-78
2021/09/20 03:38:14;;;;;;;10.35;1.30;;;;;;;;;;5080743;28;20032;-78
2021/09/20 03:40:40;;;;;;;9.70;0.98;;;;;;;;;;5067103;28;20505;-78
2021/09/20 03:43:05;;;;;;;8.05;1.15;;;;;;;;;;5065495;28;20632;-78
2021/09/20 03:45:31;;;;;;;17.52;1.38;;;;;;;;;;5068346;28;20615;-78
2021/09/20 03:47:56;;;;;;;14.65;1.13;;;;;;;;;;5068589;28;20028;-79
2021/09/20 03:50:22;;;;;;;15.73;1.73;;;;;;;;;;5067707;28;20028;-78
2021/09/20 03:52:47;;;;;;;6.78;1.65;;;;;;;;;;5052364;28;20040;-78
2021/09/20 03:55:13;;;;;;;11.45;1.33;;;;;;;;;;5068470;28;20060;-79
2021/09/20 03:57:39;;;;;;;17.15;1.60;;;;;;;;;;5066275;28;20028;-79
2021/09/20 04:00:06;;;;;;;15.40;1.52;;;;;;;;;;5069870;28;20024;-78
2021/09/20 04:02:31;;;;;;;8.63;1.55;;;;;;;;;;5066433;28;20033;-79
2021/09/20 04:04:57;;;;;;;12.18;2.17;;;;;;;;;;5065302;28;20054;-79
2021/09/20 04:07:23;;;;;;;17.92;2.00;;;;;;;;;;5081895;28;20509;-79
2021/09/20 04:09:48;;;;;;;7.35;1.48;;;;;;;;;;5065748;28;20109;-79
2021/09/20 04:12:14;;;;;;;6.18;1.00;;;;;;;;;;5069036;28;20031;-78
2021/09/20 04:14:39;;;;;;;14.57;1.48;;;;;;;;;;5066707;28;20431;-79
2021/09/20 04:17:06;;;;;;;8.07;1.92;;;;;;;;;;5065427;28;20048;-77
2021/09/20 04:19:33;;;;;;;11.45;1.30;;;;;;;;;;5067424;28;20478;-78
2021/09/20 04:22:00;;;;;;;8.75;1.50;;;;;;;;;;5083942;28;20032;-78
2021/09/20 04:24:25;;;;;;;13.18;1.73;;;;;;;;;;5066511;28;20044;-78
2021/09/20 04:26:51;;;;;;;15.90;1.83;;;;;;;;;;5066527;28;20024;-78
2021/09/20 04:29:16;;;;;;;15.02;2.00;;;;;;;;;;5075193;28;20105;-79
2021/09/20 04:31:41;;;;;;;10.98;1.40;;;;;;;;;;5067237;28;20035;-78
2021/09/20 04:34:07;;;;;;;11.73;1.48;;;;;;;;;;5066191;28;20028;-78
2021/09/20 04:36:32;;;;;;;13.55;1.83;;;;;;;;;;5062510;28;20035;-79
2021/09/20 04:38:58;;;;;;;7.85;1.60;;;;;;;;;;5065999;28;20029;-78
2021/09/20 04:41:23;;;;;;;11.00;1.63;;;;;;;;;;5062721;28;20052;-79
2021/09/20 04:43:49;;;;;;;8.10;1.40;;;;;;;;;;5064896;28;20025;-79
2021/09/20 04:46:15;;;;;;;17.77;1.77;;;;;;;;;;5063550;28;20043;-79
2021/09/20 04:48:41;;;;;;;10.85;1.55;;;;;;;;;;5066086;28;20039;-78
2021/09/20 04:51:06;;;;;;;10.07;1.55;;;;;;;;;;5065589;28;20035;-78
2021/09/20 04:53:32;;;;;;;11.00;1.50;;;;;;;;;;5065935;28;20025;-79
2021/09/20 04:55:57;;;;;;;7.75;1.70;;;;;;;;;;5067058;28;20529;-78
2021/09/20 04:58:23;;;;;;;8.23;1.25;;;;;;;;;;5066273;28;20035;-79
2021/09/20 05:00:48;;;;;;;11.52;1.02;;;;;;;;;;5063349;28;20708;-79
2021/09/20 05:03:14;;;;;;;11.93;1.58;;;;;;;;;;5067638;28;20032;-79
2021/09/20 05:05:39;;;;;;;13.18;1.23;;;;;;;;;;5050390;28;20029;-79
2021/09/20 05:08:05;;;;;;;12.20;1.55;;;;;;;;;;5061580;28;20043;-79
2021/09/20 05:10:31;;;;;;;9.15;1.42;;;;;;;;;;5065506;28;20043;-79
2021/09/20 05:12:56;;;;;;;8.13;1.20;;;;;;;;;;5081987;28;20032;-79
2021/09/20 05:15:22;;;;;;;9.75;1.73;;;;;;;;;;5049409;28;20067;-79
2021/09/20 05:17:47;;;;;;;9.43;2.22;;;;;;;;;;5059623;28;20064;-79
2021/09/20 05:20:14;;;;;;;13.25;2.28;;;;;;;;;;5064908;28;20060;-78
2021/09/20 05:22:40;;;;;;;16.08;1.85;;;;;;;;;;5083050;28;20020;-78
2021/09/20 05:25:06;;;;;;;15.73;2.60;;;;;;;;;;5064164;28;20048;-79
2021/09/20 05:27:34;;;;;;;10.80;1.95;;;;;;;;;;5065613;28;20048;-79
2021/09/20 05:30:01;;;;;;;16.95;1.90;;;;;;;;;;5060990;28;20052;-78
2021/09/20 05:32:27;;;;;;;11.88;1.92;;;;;;;;;;5081533;28;20081;-79
2021/09/20 05:34:52;;;;;;;12.55;2.10;;;;;;;;;;5067725;28;20020;-79
2021/09/20 05:37:18;;;;;;;22.08;2.45;;;;;;;;;;5035703;28;20028;-79
2021/09/20 05:39:44;;;;;;;17.65;2.40;;;;;;;;;;5068099;28;20038;-79
2021/09/20 05:42:09;;;;;;;10.80;2.58;;;;;;;;;;5066847;28;20028;-79
2021/09/20 05:44:35;;;;;;;8.57;1.90;;;;;;;;;;5066372;28;20042;-78
2021/09/20 05:47:00;;;;;;;23.42;2.85;;;;;;;;;;5066317;28;20085;-79
2021/09/20 05:49:26;;;;;;;10.95;1.98;;;;;;;;;;5063646;28;20529;-78
2021/09/20 05:51:51;;;;;;;12.95;2.60;;;;;;;;;;5064447;28;20089;-79
2021/09/20 05:54:17;;;;;;;13.10;2.08;;;;;;;;;;5066986;28;20401;-78
2021/09/20 05:56:42;;;;;;;10.98;2.15;;;;;;;;;;5064829;28;20111;-79
2021/09/20 05:59:08;;;;;;;25.98;2.58;;;;;;;;;;5061203;28;20028;-78
2021/09/20 06:01:33;;;;;;;15.25;2.30;;;;;;;;;;5063615;28;20021;-79
2021/09/20 06:03:59;;;;;;;12.05;2.05;;;;;;;;;;5065207;28;20028;-79
2021/09/20 06:06:24;;;;;;;15.35;2.35;;;;;;;;;;5050222;28;20033;-78
2021/09/20 06:08:50;;;;;;;11.82;2.70;;;;;;;;;;5080411;28;20047;-78
2021/09/20 06:11:16;;;;;;;18.95;2.90;;;;;;;;;;5063884;28;20036;-78
2021/09/20 06:13:42;;;;;;;13.93;2.17;;;;;;;;;;5067385;28;20036;-79
2021/09/20 06:16:07;;;;;;;11.27;1.75;;;;;;;;;;5061274;28;20037;-79
2021/09/20 06:18:34;;;;;;;17.42;2.40;;;;;;;;;;5067207;28;20064;-78
2021/09/20 06:21:00;;;;;;;14.75;1.95;;;;;;;;;;5048377;28;20029;-79
2021/09/20 06:23:25;;;;;;;10.20;1.95;;;;;;;;;;5057213;28;20635;-79
2021/09/20 06:25:50;;;;;;;11.30;2.03;;;;;;;;;;5065265;28;20033;-78
2021/09/20 06:28:16;;;;;;;11.57;2.08;;;;;;;;;;5047364;28;20044;-79
2021/09/20 06:30:42;;;;;;;8.95;2.00;;;;;;;;;;5060100;28;20033;-78
2021/09/20 06:33:07;;;;;;;13.27;2.28;;;;;;;;;;5063811;28;20028;-78
2021/09/20 06:35:33;;;;;;;9.75;1.98;;;;;;;;;;5066319;28;20020;-78
2021/09/20 06:37:59;;;;;;;7.65;2.08;;;;;;;;;;5061199;28;20033;-78
2021/09/20 06:40:25;;;;;;;8.73;2.35;;;;;;;;;;5062440;28;20020;-79
2021/09/20 06:42:50;;;;;;;19.55;3.20;;;;;;;;;;5063972;28;20067;-79
2021/09/20 06:45:16;;;;;;;17.83;2.65;;;;;;;;;;5030402;28;20053;-79
2021/09/20 06:47:41;;;;;;;16.65;3.42;;;;;;;;;;5059130;28;20111;-79
2021/09/20 06:50:08;;;;;;;13.70;2.83;;;;;;;;;;5074206;28;20025;-79
2021/09/20 06:52:34;;;;;;;13.32;2.00;;;;;;;;;;5064705;28;20078;-79
2021/09/20 06:54:59;;;;;;;13.82;2.22;;;;;;;;;;5064855;28;20024;-79
2021/09/20 06:57:25;;;;;;;9.95;2.00;;;;;;;;;;5064715;28;20040;-79
2021/09/20 06:59:50;;;;;;;10.25;2.33;;;;;;;;;;5058417;28;20070;-79
2021/09/20 07:02:16;;;;;;;8.50;2.42;;;;;;;;;;5062940;28;20033;-79
2021/09/20 07:04:41;;;;;;;11.52;2.17;;;;;;;;;;5064054;28;20138;-79
2021/09/20 07:07:07;;;;;;;11.45;2.13;;;;;;;;;;5065841;28;20147;-79
2021/09/20 07:09:32;;;;;;;17.70;3.75;;;;;;;;;;5066202;28;20072;-79
2021/09/20 07:11:58;;;;;;;12.85;2.83;;;;;;;;;;5065715;28;20021;-78
2021/09/20 07:14:23;;;;;;;18.90;4.47;;;;;;;;;;5064046;28;20032;-78
2021/09/20 07:16:49;;;;;;;14.30;3.70;;;;;;;;;;5065605;28;20040;-79
2021/09/20 07:19:14;;;;;;;13.57;3.08;;;;;;;;;;5063238;28;20029;-79
2021/09/20 07:21:40;;;;;;;16.58;3.08;;;;;;;;;;5066955;28;20074;-79
2021/09/20 07:24:05;;;;;;;16.80;2.75;;;;;;;;;;5063702;28;20122;-79
2021/09/20 07:26:31;;;;;;;11.20;3.00;;;;;;;;;;5063632;28;20028;-78
2021/09/20 07:28:58;;;;;;;14.70;2.47;;;;;;;;;;5063871;28;20052;-79
2021/09/20 07:31:24;;;;;;;8.95;2.75;;;;;;;;;;5083253;28;20028;-79
2021/09/20 07:33:49;;;;;;;10.68;2.65;;;;;;;;;;5066041;28;20477;-79
2021/09/20 07:36:15;;;;;;;9.52;2.67;;;;;;;;;;5065417;28;20137;-79
2021/09/20 07:38:42;;;;;;;6.75;2.30;;;;;;;;;;5064667;28;20123;-78
2021/09/20 07:41:08;;;;;;;8.18;2.88;;;;;;;;;;5082482;28;20044;-78
2021/09/20 07:43:34;;;;;;;7.93;2.22;;;;;;;;;;5066798;28;20611;-78
2021/09/20 07:46:00;;;;;;;10.48;2.40;;;;;;;;;;5065596;28;20032;-78
2021/09/20 07:48:27;;;;;;;7.05;2.22;;;;;;;;;;5065794;28;20047;-78
2021/09/20 07:50:53;;;;;;;5.97;2.22;;;;;;;;;;5067327;28;20653;-78
2021/09/20 07:53:19;;;;;;;15.48;3.50;;;;;;;;;;5069299;28;20035;-78
2021/09/20 07:55:44;;;;;;;8.75;2.50;;;;;;;;;;5069305;28;20048;-79
2021/09/20 07:58:12;;;;;;;14.57;3.08;;;;;;;;;;5068536;28;20051;-79
2021/09/20 08:00:40;;;;;;;9.98;2.30;;;;;;;;;;5083767;28;20082;-78
2021/09/20 08:03:08;;;;;;;13.55;2.15;;;;;;;;;;5066961;28;20059;-78
2021/09/20 08:05:35;;;;;;;9.05;2.10;;;;;;;;;;5067428;28;20025;-79
2021/09/20 08:08:01;;;;;;;8.70;1.98;;;;;;;;;;5065168;28;20051;-78
2021/09/20 08:10:26;;;;;;;6.82;1.67;;;;;;;;;;5062199;28;20052;-78
2021/09/20 08:12:52;;;;;;;9.27;2.08;;;;;;;;;;5084330;28;20603;-78
2021/09/20 08:15:17;;;;;;;9.98;1.75;;;;;;;;;;5068767;28;20024;-78
2021/09/20 08:17:43;;;;;;;9.57;2.42;;;;;;;;;;5068787;28;20093;-80
2021/09/20 08:20:10;;;;;;;17.13;1.75;;;;;;;;;;5069573;28;20025;-79
2021/09/20 08:22:37;;;;;;;7.65;2.08;;;;;;;;;;5086963;28;20091;-79
2021/09/20 08:25:03;;;;;;;5.38;1.80;;;;;;;;;;5070476;28;20028;-80
2021/09/20 08:27:28;;;;;;;13.57;1.80;;;;;;;;;;5071459;28;20113;-79
2021/09/20 08:29:54;;;;;;;7.35;1.73;;;;;;;;;;5070766;28;20028;-79
2021/09/20 08:32:20;;;;;;;6.35;1.27;;;;;;;;;;5066027;28;20036;-79
2021/09/20 08:34:47;;;;;;;9.07;2.08;;;;;;;;;;5068530;28;20039;-78
2021/09/20 08:37:14;;;;;;;3.92;0.98;;;;;;;;;;5062969;28;20037;-79
2021/09/20 08:39:40;;;;;;;3.72;0.77;;;;;;;;;;5068587;28;20050;-80
2021/09/20 08:42:05;;;;;;;3.50;1.02;;;;;;;;;;5067719;28;20029;-79
2021/09/20 08:44:31;;;;;;;3.97;1.30;;;;;;;;;;5066696;28;20055;-79
2021/09/20 08:46:57;;;;;;;5.35;0.85;;;;;;;;;;5064869;28;20032;-80
2021/09/20 08:49:25;;;;;;;4.25;0.98;;;;;;;;;;5061591;28;20031;-79
2021/09/20 08:51:54;;;;;;;4.32;0.95;;;;;;;;;;5080617;28;20091;-80
2021/09/20 08:54:21;;;;;;;4.45;0.80;;;;;;;;;;5066488;28;20028;-80
2021/09/20 08:56:47;;;;;;;7.32;0.75;;;;;;;;;;5066815;28;20397;-80
2021/09/20 08:59:13;;;;;;;3.33;0.80;;;;;;;;;;5081097;28;20020;-80
2021/09/20 09:01:42;;;;;;;2.13;0.93;;;;;;;;;;5064626;28;20048;-81
2021/09/20 09:04:31;;;;;;;2.15;0.60;;;;;;;;;;5081125;28;20450;-79
2021/09/20 09:07:02;;;;;;;2.88;0.68;;;;;;;;;;5066826;28;20389;-80
2021/09/20 09:09:34;;;;;;;2.35;1.10;;;;;;;;;;5065425;28;20024;-79
2021/09/20 09:12:23;;;;;;;0.60;0.50;;;;;;;;;;5067087;28;20390;-78
2021/09/20 09:14:54;;;;;;;2.15;0.80;;;;;;;;;;5059028;28;20028;-78
2021/09/20 09:17:23;;;;;;;1.15;0.50;;;;;;;;;;5064253;28;20077;-79
2021/09/20 09:19:57;;;;;;;2.42;0.68;;;;;;;;;;5065674;28;20256;-79
2021/09/20 09:22:43;;;;;;;2.30;0.77;;;;;;;;;;5067767;28;20064;-80
2021/09/20 09:25:13;;;;;;;3.72;0.88;;;;;;;;;;5078852;28;20355;-79
2021/09/20 09:27:39;;;;;;;1.42;0.63;;;;;;;;;;5072109;28;20045;-80
2021/09/20 09:30:12;;;;;;;2.58;0.63;;;;;;;;;;5065664;28;20031;-79
2021/09/20 09:32:39;;;;;;;3.65;0.82;;;;;;;;;;5067132;28;20028;-80
2021/09/20 09:35:09;;;;;;;2.17;0.90;;;;;;;;;;5078148;28;20048;-79
2021/09/20 09:37:37;;;;;;;3.00;1.10;;;;;;;;;;5064723;28;20028;-79
2021/09/20 09:40:07;;;;;;;4.20;1.00;;;;;;;;;;5067417;28;20027;-79
2021/09/20 09:42:32;;;;;;;3.42;0.90;;;;;;;;;;5067017;28;20520;-81
2021/09/20 09:45:13;;;;;;;3.40;0.80;;;;;;;;;;5050662;28;20074;-80
2021/09/20 09:47:39;;;;;;;3.50;1.08;;;;;;;;;;5066279;28;20036;-79
2021/09/20 09:50:22;;;;;;;4.88;1.13;;;;;;;;;;5067416;28;20420;-80
2021/09/20 09:52:51;;;;;;;4.95;0.93;;;;;;;;;;5079465;28;22464;-79
2021/09/20 09:55:17;;;;;;;2.00;0.82;;;;;;;;;;5065640;28;20389;-78
2021/09/20 09:57:42;;;;;;;8.77;1.40;;;;;;;;;;5064670;28;20025;-79
2021/09/20 10:00:09;;;;;;;6.88;1.08;;;;;;;;;;5058073;28;20214;-80
2021/09/20 10:02:37;;;;;;;3.65;1.10;;;;;;;;;;5063997;28;20032;-79
2021/09/20 10:05:21;;;;;;;2.47;1.17;;;;;;;;;;5067850;28;20107;-79
2021/09/20 10:07:49;;;;;;;5.60;1.15;;;;;;;;;;5067115;28;20647;-81
2021/09/20 10:10:22;;;;;;;3.83;1.10;;;;;;;;;;5067794;28;20032;-80
2021/09/20 10:12:51;;;;;;;2.72;1.30;;;;;;;;;;5078481;28;20032;-79
2021/09/20 10:15:20;;;;;;;3.72;0.98;;;;;;;;;;5060401;28;20028;-79
2021/09/20 10:17:46;;;;;;;4.47;1.23;;;;;;;;;;5063440;28;20039;-79
2021/09/20 10:20:33;;;;;;;8.93;1.38;;;;;;;;;;5063223;28;20489;-80
2021/09/20 10:22:59;;;;;;;4.50;1.10;;;;;;;;;;5060067;28;20068;-79
2021/09/20 10:25:28;;;;;;;3.08;1.10;;;;;;;;;;5066290;28;20063;-79
2021/09/20 10:27:55;;;;;;;5.50;1.83;;;;;;;;;;5065195;28;20131;-80
2021/09/20 10:30:25;;;;;;;4.63;1.25;;;;;;;;;;5065769;28;20036;-80
2021/09/20 10:32:53;;;;;;;7.05;1.52;;;;;;;;;;5060905;28;20024;-79
2021/09/20 10:35:56;;;;;;;4.65;1.40;;;;;;;;;;5064858;28;20020;-79
2021/09/20 10:38:21;;;;;;;8.18;1.90;;;;;;;;;;5072214;28;20110;-80
2021/09/20 10:41:05;;;;;;;14.02;1.83;;;;;;;;;;5063271;28;20071;-79
2021/09/20 10:43:31;;;;;;;7.65;1.83;;;;;;;;;;5061561;28;20035;-80
2021/09/20 10:45:57;;;;;;;3.95;1.33;;;;;;;;;;5048774;28;20417;-80
2021/09/20 10:48:32;;;;;;;6.60;1.27;;;;;;;;;;5078028;28;20033;-79
2021/09/20 10:51:23;;;;;;;6.63;1.40;;;;;;;;;;5061487;28;20169;-79
2021/09/20 10:54:11;;;;;;;7.05;1.48;;;;;;;;;;5072981;28;20056;-80
2021/09/20 10:56:37;;;;;;;14.30;1.60;;;;;;;;;;5075776;28;20031;-79
2021/09/20 10:59:05;;;;;;;5.72;1.70;;;;;;;;;;5062489;28;20024;-80
2021/09/20 11:01:32;;;;;;;8.50;1.30;;;;;;;;;;5062014;28;20471;-80
2021/09/20 11:03:59;;;;;;;3.10;0.70;;;;;;;;;;5074810;28;20029;-80
2021/09/20 11:06:31;;;;;;;5.80;1.00;;;;;;;;;;5061959;28;20520;-80
2021/09/20 11:08:59;;;;;;;6.18;1.50;;;;;;;;;;5067502;28;20400;-80
2021/09/20 11:11:37;;;;;;;7.07;1.50;;;;;;;;;;5062898;28;20024;-80
2021/09/20 11:14:07;;;;;;;8.75;1.25;;;;;;;;;;5057414;28;20082;-80
2021/09/20 11:16:57;;;;;;;6.13;1.35;;;;;;;;;;5061000;28;20028;-79
2021/09/20 11:22:11;;;;;;;13.40;2.33;;;;;;;;;;5063648;28;20032;-79
2021/09/20 11:24:44;;;;;;;9.60;2.00;;;;;;;;;;5059625;28;20404;-79
2021/09/20 11:27:38;;;;;;;11.15;1.75;;;;;;;;;;5063023;28;20033;-79
2021/09/20 11:30:14;;;;;;;4.47;1.17;;;;;;;;;;5063732;28;20039;-79
2021/09/20 11:33:00;;;;;;;10.50;1.92;;;;;;;;;;5062282;28;20074;-80
2021/09/20 11:35:31;;;;;;;12.82;1.60;;;;;;;;;;5063934;28;20931;-80
2021/09/20 11:38:01;;;;;;;10.20;1.67;;;;;;;;;;5077890;28;20032;-79
2021/09/20 11:40:32;;;;;;;4.88;1.35;;;;;;;;;;5079083;28;20201;-78
2021/09/20 11:43:02;;;;;;;3.47;1.15;;;;;;;;;;5062863;28;20077;-77
2021/09/20 11:45:30;;;;;;;5.15;1.23;;;;;;;;;;5063166;28;20032;-79
2021/09/20 11:47:58;;;;;;;9.35;1.42;;;;;;;;;;5065415;28;20036;-80
2021/09/20 11:50:31;;;;;;;14.95;2.00;;;;;;;;;;5062668;28;20364;-78
2021/09/20 11:53:09;;;;;;;7.07;1.33;;;;;;;;;;5068361;28;20039;-78
2021/09/20 11:55:37;;;;;;;10.68;1.55;;;;;;;;;;5082715;28;20278;-78
2021/09/20 11:58:07;;;;;;;5.35;1.20;;;;;;;;;;5065656;28;20032;-78
2021/09/20 12:00:36;;;;;;;7.35;1.40;;;;;;;;;;5060450;28;20028;-78
2021/09/20 12:03:04;;;;;;;10.15;1.38;;;;;;;;;;5065326;28;20024;-79
2021/09/20 12:05:33;;;;;;;4.95;0.98;;;;;;;;;;5061911;28;20029;-80
2021/09/20 12:08:01;;;;;;;3.80;1.15;;;;;;;;;;5065017;28;20024;-81
2021/09/20 12:10:31;;;;;;;12.05;1.15;;;;;;;;;;5066899;28;20026;-80
2021/09/20 12:13:00;;;;;;;9.10;1.35;;;;;;;;;;5064475;28;20032;-80
2021/09/20 12:15:31;;;;;;;7.82;1.10;;;;;;;;;;5061498;28;20314;-80
2021/09/20 12:17:58;;;;;;;;;;;;;;;;;;5067066;28;20032;-80
2021/09/20 12:20:37;;;;;;;7.20;1.30;;;;;;;;;;5076484;28;19970;-79
2021/09/20 12:23:15;;;;;;;3.30;0.85;;;;;;;;;;5062966;28;20024;-79
2021/09/20 12:25:42;;;;;;;9.18;1.63;;;;;;;;;;5066458;28;20021;-78
2021/09/20 12:28:30;;;;;;;4.90;1.00;;;;;;;;;;5066646;28;20049;-78
2021/09/20 12:30:59;;;;;;;5.00;1.20;;;;;;;;;;5063508;28;20032;-80
2021/09/20 12:33:26;;;;;;;5.47;1.40;;;;;;;;;;5067634;28;20031;-79
2021/09/20 12:35:52;;;;;;;9.75;1.48;;;;;;;;;;5068217;28;20025;-83
2021/09/20 12:38:27;;;;;;;5.90;1.80;;;;;;;;;;5065903;28;20036;-78
2021/09/20 12:40:54;;;;;;;6.05;1.20;;;;;;;;;;5067161;28;20028;-79
2021/09/20 12:43:26;;;;;;;5.82;1.55;;;;;;;;;;5066606;28;20082;-78
2021/09/20 12:45:52;;;;;;;11.70;1.98;;;;;;;;;;5082900;28;20509;-80
2021/09/20 12:48:31;;;;;;;7.78;1.77;;;;;;;;;;5063371;28;20490;-80
2021/09/20 12:51:00;;;;;;;6.10;1.42;;;;;;;;;;5061250;28;20486;-79
2021/09/20 12:53:38;;;;;;;6.68;1.20;;;;;;;;;;5067828;28;20093;-80
2021/09/20 12:56:07;;;;;;;6.10;1.40;;;;;;;;;;5082670;28;20043;-81
2021/09/20 12:58:41;;;;;;;7.43;2.03;;;;;;;;;;5064269;28;20032;-78
2021/09/20 13:01:10;;;;;;;9.50;1.40;;;;;;;;;;5064534;28;20102;-79
2021/09/20 13:03:38;;;;;;;7.10;1.75;;;;;;;;;;5063179;28;20111;-80
2021/09/20 13:06:11;;;;;;;4.22;1.45;;;;;;;;;;5065043;28;20206;-79
2021/09/20 13:08:39;;;;;;;10.90;2.05;;;;;;;;;;5076725;28;20036;-79
2021/09/20 13:11:17;;;;;;;8.98;1.50;;;;;;;;;;5067559;28;20037;-79
2021/09/20 13:13:43;;;;;;;7.55;1.90;;;;;;;;;;5067679;28;20036;-79
2021/09/20 13:16:12;;;;;;;4.50;1.35;;;;;;;;;;5077009;28;20037;-79
2021/09/20 13:18:38;;;;;;;5.60;1.60;;;;;;;;;;5066434;28;20028;-79
2021/09/20 13:21:24;;;;;;;5.88;1.42;;;;;;;;;;5064849;28;20032;-79
2021/09/20 13:23:52;;;;;;;6.38;1.80;;;;;;;;;;5064496;28;20029;-79
2021/09/20 13:26:30;;;;;;;7.15;1.77;;;;;;;;;;5063444;28;20544;-79
2021/09/20 13:28:56;;;;;;;9.05;1.80;;;;;;;;;;5065725;28;20105;-79
2021/09/20 13:31:22;;;;;;;7.35;1.90;;;;;;;;;;5066110;28;20484;-79
2021/09/20 13:33:50;;;;;;;7.25;2.10;;;;;;;;;;5061344;28;20111;-78
2021/09/20 13:36:15;;;;;;;10.80;1.90;;;;;;;;;;5067031;28;20032;-80
2021/09/20 13:38:43;;;;;;;6.60;1.35;;;;;;;;;;5062640;28;20430;-79
2021/09/20 13:41:16;;;;;;;5.68;1.58;;;;;;;;;;5064714;28;20072;-78
2021/09/20 13:43:44;;;;;;;13.55;2.20;;;;;;;;;;5067803;28;20107;-78
2021/09/20 13:46:12;;;;;;;9.55;1.92;;;;;;;;;;5064339;28;20445;-77
2021/09/20 13:48:38;;;;;;;11.18;2.03;;;;;;;;;;5060577;28;20616;-77
2021/09/20 13:51:07;;;;;;;8.40;2.20;;;;;;;;;;5076731;28;20111;-77
2021/09/20 13:53:33;;;;;;;8.00;2.80;;;;;;;;;;5079230;28;20028;-77
2021/09/20 13:55:59;;;;;;;10.52;2.25;;;;;;;;;;5060581;28;20482;-76
2021/09/20 13:58:25;;;;;;;9.45;2.33;;;;;;;;;;5064994;28;20440;-77
2021/09/20 14:00:51;;;;;;;7.03;2.10;;;;;;;;;;5057849;28;20044;-77
2021/09/20 14:03:17;;;;;;;17.55;2.63;;;;;;;;;;5076698;28;20271;-76
2021/09/20 14:05:44;;;;;;;10.80;2.40;;;;;;;;;;5061341;28;20025;-77
2021/09/20 14:08:14;;;;;;;12.90;2.40;;;;;;;;;;5066005;28;20196;-76
2021/09/20 14:10:40;;;;;;;10.88;2.47;;;;;;;;;;5077290;28;20016;-75
2021/09/20 14:13:06;;;;;;;11.60;2.70;;;;;;;;;;5063002;28;20036;-77
2021/09/20 14:15:32;;;;;;;9.10;2.85;;;;;;;;;;5063329;28;20370;-76
2021/09/20 14:17:58;;;;;;;14.15;3.10;;;;;;;;;;5065046;28;20366;-77
2021/09/20 14:20:26;;;;;;;13.35;3.22;;;;;;;;;;5065071;28;20394;-77
2021/09/20 14:22:52;;;;;;;15.40;3.50;;;;;;;;;;5061644;28;20032;-77
2021/09/20 14:25:18;;;;;;;18.52;3.60;;;;;;;;;;5061019;28;20090;-77
2021/09/20 14:27:45;;;;;;;14.38;3.45;;;;;;;;;;5060394;28;20089;-77
2021/09/20 14:30:14;;;;;;;12.00;3.10;;;;;;;;;;5077812;28;20035;-77
2021/09/20 14:32:40;;;;;;;12.18;3.65;;;;;;;;;;5059968;28;20032;-76
2021/09/20 14:35:08;;;;;;;17.50;3.13;;;;;;;;;;5071507;28;20120;-77
2021/09/20 14:37:36;;;;;;;16.40;3.20;;;;;;;;;;5066326;28;20024;-77
2021/09/20 14:40:12;;;;;;;16.85;4.20;;;;;;;;;;5064540;28;20166;-77
2021/09/20 14:42:38;;;;;;;15.95;2.92;;;;;;;;;;5061109;28;20029;-77